Las Rusias, Texas
Current Conditions -  °F | °C
As of 2:52 AM on Sunday 23 Nov 2014 (Local Time) from KHRL Reporting Station
Clear Clear  
Wind Chill: 61°   Ceiling: Unl
Heat Index: 61°   Visibility: 10mi
Dew Point: 61°   Wind: 3mph
Humidity: 100%   Direction: 310°NW
Pressure: 29.77"   Gusts: NA
Location:  26.1784°N, 97.6678°W
Report Text: KHRL 230852Z 31003KT 10SM CLR 16/16 A2977 RMK AO2 SLP079 60004 T01610161 55005
Loading
Personal Weather Stations






























Interactive Weather Map New forecast layout! Learn more

10-Day Weather Forecast

Advertisements
Track Severe Weather on mobile